Time;durP1;ratioP1;P1;durP2;ratioP2;P2;SDS_P1;SDS_P2;PMS_P1;PMS_P2;Temp;Humidity;BMP_temperature;BMP_pressure;BME280_temperature;BME280_humidity;BME280_pressure;Samples;Min_cycle;Max_cycle;Signal;HPM_P1;HPM_P2
2022/07/21 00:02:12;;;;;;;2.03;1.70;;;;;;;;;;5042954;28;87139;-51
2022/07/21 00:04:40;;;;;;;3.17;1.60;;;;;;;;;;5042747;28;87920;-51
2022/07/21 00:07:09;;;;;;;3.23;1.70;;;;;;;;;;5043150;28;87127;-52
2022/07/21 00:09:37;;;;;;;2.03;1.63;;;;;;;;;;5022900;28;89195;-51
2022/07/21 00:12:06;;;;;;;2.47;1.80;;;;;;;;;;5022750;28;88807;-51
2022/07/21 00:14:34;;;;;;;2.07;1.77;;;;;;;;;;5023203;28;87080;-51
2022/07/21 00:17:02;;;;;;;3.20;1.53;;;;;;;;;;5023701;28;86920;-51
2022/07/21 00:19:32;;;;;;;1.60;1.50;;;;;;;;;;5022569;28;88188;-51
2022/07/21 00:22:00;;;;;;;2.80;1.57;;;;;;;;;;5023196;28;88903;-51
2022/07/21 00:24:29;;;;;;;1.80;1.70;;;;;;;;;;5023038;28;87096;-51
2022/07/21 00:26:57;;;;;;;2.67;1.70;;;;;;;;;;5023319;28;86986;-51
2022/07/21 00:29:25;;;;;;;2.95;2.00;;;;;;;;;;5023103;28;90098;-52
2022/07/21 00:31:53;;;;;;;3.43;1.73;;;;;;;;;;5022162;28;88900;-51
2022/07/21 00:34:22;;;;;;;1.98;1.77;;;;;;;;;;5023879;28;86937;-52
2022/07/21 00:36:51;;;;;;;1.55;1.45;;;;;;;;;;5023634;28;87047;-51
2022/07/21 00:39:20;;;;;;;2.10;1.70;;;;;;;;;;5023674;28;88121;-53
2022/07/21 00:41:48;;;;;;;2.93;1.43;;;;;;;;;;5023385;28;87791;-51
2022/07/21 00:44:23;;;;;;;1.83;1.50;;;;;;;;;;5023836;28;87016;-52
2022/07/21 00:46:51;;;;;;;1.30;1.20;;;;;;;;;;5023911;28;86356;-52
2022/07/21 00:49:20;;;;;;;1.67;1.57;;;;;;;;;;5023633;28;88239;-52
2022/07/21 00:51:48;;;;;;;2.57;1.40;;;;;;;;;;5023370;28;87159;-51
2022/07/21 00:54:18;;;;;;;1.30;1.20;;;;;;;;;;5022985;28;87819;-51
2022/07/21 00:56:46;;;;;;;2.17;1.17;;;;;;;;;;5023143;28;86931;-52
2022/07/21 00:59:14;;;;;;;1.67;1.20;;;;;;;;;;5023282;28;86978;-51
2022/07/21 01:01:43;;;;;;;2.73;1.40;;;;;;;;;;5022590;28;89145;-52
2022/07/21 01:04:11;;;;;;;2.07;1.57;;;;;;;;;;5023221;28;87032;-51
2022/07/21 01:06:39;;;;;;;1.40;1.30;;;;;;;;;;5022822;28;87174;-53
2022/07/21 01:09:07;;;;;;;2.70;1.50;;;;;;;;;;5038810;28;86994;-52
2022/07/21 01:11:40;;;;;;;2.17;1.53;;;;;;;;;;5043565;28;87783;-52
2022/07/21 01:14:08;;;;;;;1.90;1.80;;;;;;;;;;5043682;28;86985;-52
2022/07/21 01:16:36;;;;;;;1.40;1.20;;;;;;;;;;5043676;28;86995;-52
2022/07/21 01:19:05;;;;;;;2.80;1.40;;;;;;;;;;5043104;28;88851;-52
2022/07/21 01:21:35;;;;;;;1.90;1.50;;;;;;;;;;5043245;28;88851;-51
2022/07/21 01:24:03;;;;;;;1.70;1.40;;;;;;;;;;5043346;28;87033;-51
2022/07/21 01:26:32;;;;;;;2.00;1.50;;;;;;;;;;5041322;28;87005;-52
2022/07/21 01:29:00;;;;;;;3.17;1.80;;;;;;;;;;5041835;28;88269;-52
2022/07/21 01:31:28;;;;;;;1.90;1.70;;;;;;;;;;5041640;28;87972;-52
2022/07/21 01:33:57;;;;;;;1.93;1.53;;;;;;;;;;5042225;28;87505;-52
2022/07/21 01:36:25;;;;;;;1.57;1.30;;;;;;;;;;5043758;27;86166;-52
2022/07/21 01:41:42;;;;;;;3.20;1.57;;;;;;;;;;5036138;28;88010;-52
2022/07/21 01:44:12;;;;;;;1.83;1.40;;;;;;;;;;5042526;28;88028;-52
2022/07/21 01:46:41;;;;;;;2.00;1.60;;;;;;;;;;5043087;28;87109;-51
2022/07/21 01:49:09;;;;;;;2.70;1.63;;;;;;;;;;5042909;28;88083;-49
2022/07/21 01:51:37;;;;;;;3.43;2.17;;;;;;;;;;5043020;27;88945;-52
2022/07/21 01:54:07;;;;;;;4.43;1.90;;;;;;;;;;5042482;28;87060;-51
2022/07/21 01:56:36;;;;;;;4.03;1.77;;;;;;;;;;5042104;28;87006;-49
2022/07/21 01:59:04;;;;;;;3.33;2.03;;;;;;;;;;5041800;28;89218;-49
2022/07/21 02:01:32;;;;;;;3.03;1.90;;;;;;;;;;5042387;28;88913;-53
2022/07/21 02:04:02;;;;;;;2.63;2.43;;;;;;;;;;5042706;27;87066;-51
2022/07/21 02:06:30;;;;;;;2.63;2.30;;;;;;;;;;5043084;28;87059;-52
2022/07/21 02:08:58;;;;;;;2.60;1.93;;;;;;;;;;5041843;28;89132;-49
2022/07/21 02:11:28;;;;;;;2.87;2.20;;;;;;;;;;5042399;28;88782;-52
2022/07/21 02:13:56;;;;;;;3.03;2.40;;;;;;;;;;5042439;28;86960;-52
2022/07/21 02:16:25;;;;;;;2.67;2.43;;;;;;;;;;5042600;28;86855;-51
2022/07/21 02:18:53;;;;;;;2.60;2.40;;;;;;;;;;5042346;28;88055;-51
2022/07/21 02:21:22;;;;;;;3.20;2.37;;;;;;;;;;5042099;28;87439;-52
2022/07/21 02:23:51;;;;;;;4.07;2.97;;;;;;;;;;5041909;28;86960;-51
2022/07/21 02:26:19;;;;;;;3.10;2.37;;;;;;;;;;5042607;28;87535;-51
2022/07/21 02:28:48;;;;;;;3.30;2.30;;;;;;;;;;5042140;28;88080;-52
2022/07/21 02:31:17;;;;;;;3.23;2.73;;;;;;;;;;5041868;28;87752;-51
2022/07/21 02:33:46;;;;;;;4.83;2.90;;;;;;;;;;5041884;28;88999;-52
2022/07/21 02:36:14;;;;;;;3.43;3.00;;;;;;;;;;5041892;28;86997;-49
2022/07/21 02:38:42;;;;;;;4.60;3.50;;;;;;;;;;5041618;28;89316;-49
2022/07/21 02:41:10;;;;;;;2.33;2.10;;;;;;;;;;5041845;28;87845;-52
2022/07/21 02:43:39;;;;;;;4.57;2.40;;;;;;;;;;5041839;28;87059;-51
2022/07/21 02:46:08;;;;;;;2.90;2.60;;;;;;;;;;5041403;28;88427;-51
2022/07/21 02:48:37;;;;;;;3.13;2.40;;;;;;;;;;5041628;28;89090;-52
2022/07/21 02:51:05;;;;;;;3.37;2.30;;;;;;;;;;5042070;28;87939;-51
2022/07/21 02:53:35;;;;;;;3.10;2.70;;;;;;;;;;5040858;28;86995;-51
2022/07/21 02:56:04;;;;;;;2.90;2.33;;;;;;;;;;5040752;28;87542;-52
2022/07/21 02:58:32;;;;;;;3.87;2.80;;;;;;;;;;5040198;28;90040;-51
2022/07/21 03:01:01;;;;;;;3.50;2.63;;;;;;;;;;5041045;28;87643;-52
2022/07/21 03:03:31;;;;;;;5.23;2.70;;;;;;;;;;5041519;28;86940;-51
2022/07/21 03:05:59;;;;;;;5.83;3.40;;;;;;;;;;5041176;28;87053;-51
2022/07/21 03:08:28;;;;;;;5.10;3.17;;;;;;;;;;5041004;28;88143;-51
2022/07/21 03:10:56;;;;;;;3.47;2.97;;;;;;;;;;5041668;28;89030;-51
2022/07/21 03:13:25;;;;;;;3.80;3.07;;;;;;;;;;5041369;28;87111;-51
2022/07/21 03:15:54;;;;;;;5.30;3.30;;;;;;;;;;5041192;28;86316;-51
2022/07/21 03:18:22;;;;;;;4.57;3.03;;;;;;;;;;5041735;28;88072;-52
2022/07/21 03:20:52;;;;;;;5.03;3.50;;;;;;;;;;5041635;28;88881;-50
2022/07/21 03:23:20;;;;;;;5.23;3.20;;;;;;;;;;5041161;28;87864;-49
2022/07/21 03:25:48;;;;;;;3.73;3.10;;;;;;;;;;5041093;28;87178;-49
2022/07/21 03:28:17;;;;;;;3.40;2.77;;;;;;;;;;5041253;28;88278;-49
2022/07/21 03:30:45;;;;;;;4.30;3.07;;;;;;;;;;5041322;28;87853;-52
2022/07/21 03:33:13;;;;;;;3.50;2.90;;;;;;;;;;5041335;28;87025;-49
2022/07/21 03:35:42;;;;;;;4.43;2.70;;;;;;;;;;5041178;28;86977;-49
2022/07/21 03:38:11;;;;;;;3.67;2.87;;;;;;;;;;5041120;28;89103;-49
2022/07/21 03:40:39;;;;;;;5.50;2.67;;;;;;;;;;5041498;28;88087;-49
2022/07/21 03:43:09;;;;;;;4.13;3.13;;;;;;;;;;5041609;28;86954;-51
2022/07/21 03:45:37;;;;;;;3.50;2.60;;;;;;;;;;5041000;28;87015;-51
2022/07/21 03:48:06;;;;;;;4.33;2.43;;;;;;;;;;5040354;28;88992;-49
2022/07/21 03:50:35;;;;;;;3.93;2.70;;;;;;;;;;5040565;28;89953;-51
2022/07/21 03:53:03;;;;;;;4.17;2.67;;;;;;;;;;5040850;28;87027;-52
2022/07/21 03:55:32;;;;;;;2.63;2.37;;;;;;;;;;5041033;28;86930;-51
2022/07/21 03:58:02;;;;;;;3.43;2.60;;;;;;;;;;5040934;28;88225;-50
2022/07/21 04:00:30;;;;;;;3.17;2.40;;;;;;;;;;5040934;28;87793;-50
2022/07/21 04:02:59;;;;;;;3.30;2.53;;;;;;;;;;5041157;28;87040;-52
2022/07/21 04:05:28;;;;;;;2.60;2.33;;;;;;;;;;5041989;28;86347;-51
2022/07/21 04:07:56;;;;;;;4.80;2.80;;;;;;;;;;5043871;28;88005;-49
2022/07/21 04:10:26;;;;;;;5.03;2.67;;;;;;;;;;5043827;28;87977;-51
2022/07/21 04:12:55;;;;;;;2.23;2.03;;;;;;;;;;5043783;28;87985;-51
2022/07/21 04:15:24;;;;;;;4.83;2.30;;;;;;;;;;5024642;28;87024;-49
2022/07/21 04:17:52;;;;;;;6.03;3.07;;;;;;;;;;5040102;28;89485;-49
2022/07/21 04:20:21;;;;;;;3.83;2.33;;;;;;;;;;5043982;28;87914;-51
2022/07/21 04:22:49;;;;;;;3.13;2.23;;;;;;;;;;5044193;28;88086;-49
2022/07/21 04:25:18;;;;;;;3.37;2.53;;;;;;;;;;5042888;28;87165;-49
2022/07/21 04:27:46;;;;;;;2.40;2.10;;;;;;;;;;5043678;28;87933;-49
2022/07/21 04:30:16;;;;;;;3.43;2.53;;;;;;;;;;5044166;28;87934;-49
2022/07/21 04:32:44;;;;;;;3.77;2.53;;;;;;;;;;5043780;28;86911;-52
2022/07/21 04:35:13;;;;;;;4.43;2.30;;;;;;;;;;5043654;28;87042;-49
2022/07/21 04:37:41;;;;;;;3.03;2.23;;;;;;;;;;5042933;28;89137;-49
2022/07/21 04:40:10;;;;;;;3.00;2.30;;;;;;;;;;5043927;28;88649;-51
2022/07/21 04:42:38;;;;;;;3.13;2.27;;;;;;;;;;5043455;28;87042;-49
2022/07/21 04:45:07;;;;;;;2.60;2.10;;;;;;;;;;5043837;28;86966;-49
2022/07/21 04:47:44;;;;;;;2.37;2.17;;;;;;;;;;5043552;28;89266;-49
2022/07/21 04:50:12;;;;;;;2.50;2.07;;;;;;;;;;5043377;28;87710;-49
2022/07/21 04:52:41;;;;;;;4.27;2.37;;;;;;;;;;5043264;28;87053;-49
2022/07/21 04:55:09;;;;;;;3.37;2.27;;;;;;;;;;5044139;28;86355;-50
2022/07/21 04:57:39;;;;;;;2.17;1.60;;;;;;;;;;5042996;28;89114;-50
2022/07/21 05:00:07;;;;;;;3.23;2.07;;;;;;;;;;5042684;28;86919;-49
2022/07/21 05:02:36;;;;;;;1.93;1.73;;;;;;;;;;5042599;28;87924;-49
2022/07/21 05:05:06;;;;;;;1.70;1.60;;;;;;;;;;5043415;28;88234;-49
2022/07/21 05:07:34;;;;;;;2.57;1.70;;;;;;;;;;5043098;28;87697;-51
2022/07/21 05:10:04;;;;;;;1.77;1.40;;;;;;;;;;5043233;28;87872;-50
2022/07/21 05:12:33;;;;;;;2.37;1.80;;;;;;;;;;5043302;28;87067;-50
2022/07/21 05:15:01;;;;;;;2.57;1.80;;;;;;;;;;5043774;28;86937;-52
2022/07/21 05:17:29;;;;;;;2.23;1.60;;;;;;;;;;5043049;28;88260;-50
2022/07/21 05:19:58;;;;;;;2.77;1.80;;;;;;;;;;5043596;28;88995;-50
2022/07/21 05:22:28;;;;;;;3.43;2.00;;;;;;;;;;5043306;28;86857;-52
2022/07/21 05:24:56;;;;;;;1.80;1.70;;;;;;;;;;5043286;28;87081;-52
2022/07/21 05:27:25;;;;;;;4.07;1.53;;;;;;;;;;5042566;28;90297;-52
2022/07/21 05:29:53;;;;;;;2.23;2.03;;;;;;;;;;5042625;28;89864;-51
2022/07/21 05:32:21;;;;;;;2.90;1.67;;;;;;;;;;5042716;28;86757;-49
2022/07/21 05:34:49;;;;;;;2.70;2.13;;;;;;;;;;5042301;28;87140;-49
2022/07/21 05:37:18;;;;;;;1.60;1.30;;;;;;;;;;5042658;28;88263;-49
2022/07/21 05:39:47;;;;;;;2.93;1.90;;;;;;;;;;5042437;28;89168;-49
2022/07/21 05:42:16;;;;;;;2.37;1.53;;;;;;;;;;5042860;28;86906;-50
2022/07/21 05:44:44;;;;;;;2.93;1.80;;;;;;;;;;5042852;28;86355;-50
2022/07/21 05:47:12;;;;;;;3.13;1.67;;;;;;;;;;5041864;28;88292;-49
2022/07/21 05:49:41;;;;;;;3.53;1.80;;;;;;;;;;5042053;28;87959;-50
2022/07/21 05:52:09;;;;;;;2.83;1.80;;;;;;;;;;5041542;28;88093;-50
2022/07/21 05:54:37;;;;;;;3.77;1.87;;;;;;;;;;5042566;28;86971;-49
2022/07/21 05:57:08;;;;;;;2.37;1.87;;;;;;;;;;5042189;28;88066;-51
2022/07/21 05:59:36;;;;;;;3.20;2.23;;;;;;;;;;5042182;28;87802;-49
2022/07/21 06:02:04;;;;;;;4.30;2.70;;;;;;;;;;5042277;28;87031;-50
2022/07/21 06:04:33;;;;;;;3.53;2.50;;;;;;;;;;5041903;28;87030;-51
2022/07/21 06:07:01;;;;;;;3.73;2.60;;;;;;;;;;5041817;28;86880;-50
2022/07/21 06:09:29;;;;;;;4.33;2.60;;;;;;;;;;5042277;28;88911;-50
2022/07/21 06:11:58;;;;;;;6.17;3.37;;;;;;;;;;5042698;28;86941;-50
2022/07/21 06:14:28;;;;;;;3.27;2.53;;;;;;;;;;5042084;28;88566;-50
2022/07/21 06:16:57;;;;;;;4.03;2.60;;;;;;;;;;5041564;28;90003;-50
2022/07/21 06:19:25;;;;;;;3.00;2.63;;;;;;;;;;5042074;28;88813;-50
2022/07/21 06:21:59;;;;;;;2.70;2.17;;;;;;;;;;5042584;28;87053;-50
2022/07/21 06:24:28;;;;;;;2.60;2.00;;;;;;;;;;5042664;28;86968;-50
2022/07/21 06:26:56;;;;;;;4.67;2.80;;;;;;;;;;5042112;28;89180;-50
2022/07/21 06:29:34;;;;;;;3.47;2.30;;;;;;;;;;5041150;27;87645;-50
2022/07/21 06:32:02;;;;;;;6.30;2.70;;;;;;;;;;5041786;28;86906;-50
2022/07/21 06:34:30;;;;;;;4.20;2.33;;;;;;;;;;5042536;28;86366;-50
2022/07/21 06:36:59;;;;;;;3.00;2.13;;;;;;;;;;5041764;28;88066;-50
2022/07/21 06:39:27;;;;;;;3.33;2.70;;;;;;;;;;5033703;28;88904;-50
2022/07/21 06:41:55;;;;;;;3.00;2.00;;;;;;;;;;5041601;28;87972;-50
2022/07/21 06:44:24;;;;;;;2.77;1.70;;;;;;;;;;5041466;28;87120;-50
2022/07/21 06:46:54;;;;;;;3.20;1.67;;;;;;;;;;5041529;28;86885;-50
2022/07/21 06:49:22;;;;;;;2.93;2.00;;;;;;;;;;5040793;28;86945;-50
2022/07/21 06:51:51;;;;;;;3.00;2.20;;;;;;;;;;5041570;28;87061;-50
2022/07/21 06:54:19;;;;;;;2.87;1.70;;;;;;;;;;5041774;28;86988;-49
2022/07/21 06:56:47;;;;;;;1.70;1.60;;;;;;;;;;5041359;28;88184;-50
2022/07/21 06:59:16;;;;;;;2.23;1.90;;;;;;;;;;5041555;28;87948;-50
2022/07/21 07:01:44;;;;;;;2.37;1.80;;;;;;;;;;5041137;28;87082;-50
2022/07/21 07:04:14;;;;;;;2.83;1.60;;;;;;;;;;5041321;28;87105;-50
2022/07/21 07:06:44;;;;;;;1.80;1.57;;;;;;;;;;5041030;28;89026;-50
2022/07/21 07:09:12;;;;;;;4.47;2.00;;;;;;;;;;5040724;28;88874;-50
2022/07/21 07:11:41;;;;;;;1.93;1.53;;;;;;;;;;5041181;28;87145;-51
2022/07/21 07:14:29;;;;;;;2.67;1.83;;;;;;;;;;5041483;28;87039;-50
2022/07/21 07:16:57;;;;;;;2.00;1.60;;;;;;;;;;5041281;28;88314;-50
2022/07/21 07:19:27;;;;;;;3.47;1.57;;;;;;;;;;5041245;28;87726;-50
2022/07/21 07:21:55;;;;;;;3.87;1.50;;;;;;;;;;5041777;28;87023;-50
2022/07/21 07:24:24;;;;;;;3.50;1.57;;;;;;;;;;5041624;28;86345;-50
2022/07/21 07:26:52;;;;;;;2.60;1.70;;;;;;;;;;5040874;28;88298;-50
2022/07/21 07:29:20;;;;;;;4.70;1.80;;;;;;;;;;5041303;28;87939;-50
2022/07/21 07:31:48;;;;;;;3.73;1.50;;;;;;;;;;5040099;28;87861;-50
2022/07/21 07:34:17;;;;;;;2.73;1.37;;;;;;;;;;5041212;28;86933;-50
2022/07/21 07:36:47;;;;;;;2.40;1.50;;;;;;;;;;5041078;28;89014;-50
2022/07/21 07:39:15;;;;;;;4.20;1.80;;;;;;;;;;5040823;28;87065;-50
2022/07/21 07:41:44;;;;;;;3.23;1.33;;;;;;;;;;5043565;27;86747;-50
2022/07/21 07:44:12;;;;;;;2.43;1.80;;;;;;;;;;5044708;28;87026;-50
2022/07/21 07:46:40;;;;;;;2.93;1.70;;;;;;;;;;5044176;28;87106;-50
2022/07/21 07:49:09;;;;;;;1.93;1.57;;;;;;;;;;5045000;28;87514;-50
2022/07/21 07:51:48;;;;;;;1.23;1.00;;;;;;;;;;5044598;28;87027;-50
2022/07/21 07:54:16;;;;;;;1.93;1.50;;;;;;;;;;5044466;28;87146;-50
2022/07/21 07:56:45;;;;;;;1.93;1.40;;;;;;;;;;5043823;28;89202;-50
2022/07/21 07:59:13;;;;;;;1.07;0.97;;;;;;;;;;5044269;28;88838;-50
2022/07/21 08:01:41;;;;;;;1.20;1.10;;;;;;;;;;5044256;28;87063;-50
2022/07/21 08:04:10;;;;;;;1.63;1.47;;;;;;;;;;5044436;28;87034;-50
2022/07/21 08:06:38;;;;;;;2.47;1.57;;;;;;;;;;5044456;28;88054;-50
2022/07/21 08:09:08;;;;;;;2.10;1.90;;;;;;;;;;5043906;28;89064;-50
2022/07/21 08:11:36;;;;;;;2.53;1.60;;;;;;;;;;5044430;28;87019;-50
2022/07/21 08:14:05;;;;;;;4.07;1.80;;;;;;;;;;5044825;28;86732;-50
2022/07/21 08:16:33;;;;;;;3.50;1.67;;;;;;;;;;5044015;28;89248;-50
2022/07/21 08:19:01;;;;;;;2.53;1.80;;;;;;;;;;5043733;28;87725;-50
2022/07/21 08:21:30;;;;;;;3.20;2.10;;;;;;;;;;5043133;28;89163;-50
2022/07/21 08:24:20;;;;;;;3.40;2.10;;;;;;;;;;5043399;28;86790;-50
2022/07/21 08:26:48;;;;;;;3.57;2.20;;;;;;;;;;5043904;28;89184;-50
2022/07/21 08:29:16;;;;;;;2.73;2.50;;;;;;;;;;5043500;28;87161;-50
2022/07/21 08:31:45;;;;;;;3.10;2.60;;;;;;;;;;5043648;28;86971;-50
2022/07/21 08:34:13;;;;;;;4.53;2.63;;;;;;;;;;5044203;28;87008;-50
2022/07/21 08:36:41;;;;;;;4.60;2.90;;;;;;;;;;5043736;28;88117;-49
2022/07/21 08:39:10;;;;;;;3.97;2.77;;;;;;;;;;5044161;28;88140;-50
2022/07/21 08:41:40;;;;;;;4.23;2.17;;;;;;;;;;5043863;28;86942;-51
2022/07/21 08:44:10;;;;;;;3.10;2.40;;;;;;;;;;5043653;28;87070;-50
2022/07/21 08:46:39;;;;;;;3.97;2.73;;;;;;;;;;5042590;28;90026;-51
2022/07/21 08:49:07;;;;;;;2.93;2.60;;;;;;;;;;5043996;28;89839;-50
2022/07/21 08:51:35;;;;;;;3.67;2.77;;;;;;;;;;5042693;28;87108;-50
2022/07/21 08:54:04;;;;;;;3.13;2.30;;;;;;;;;;5043365;28;87057;-50
2022/07/21 08:56:32;;;;;;;2.67;2.33;;;;;;;;;;5043024;28;89242;-50
2022/07/21 08:59:04;;;;;;;4.57;2.70;;;;;;;;;;5042745;28;87623;-50
2022/07/21 09:01:33;;;;;;;5.77;2.90;;;;;;;;;;5043262;28;87005;-50
2022/07/21 09:04:17;;;;;;;4.53;2.37;;;;;;;;;;5043891;28;86376;-50
2022/07/21 09:06:50;;;;;;;2.93;2.43;;;;;;;;;;5043555;28;88969;-50
2022/07/21 09:09:19;;;;;;;3.03;2.10;;;;;;;;;;5043047;28;88041;-50
2022/07/21 09:11:48;;;;;;;4.37;2.63;;;;;;;;;;5042730;28;87970;-50
2022/07/21 09:14:18;;;;;;;3.60;2.80;;;;;;;;;;5043469;28;86856;-49
2022/07/21 09:16:47;;;;;;;5.43;3.00;;;;;;;;;;5042971;28;88119;-50
2022/07/21 09:19:19;;;;;;;4.67;3.10;;;;;;;;;;5043123;28;87720;-50
2022/07/21 09:21:48;;;;;;;3.57;2.70;;;;;;;;;;5043437;28;86814;-50
2022/07/21 09:24:17;;;;;;;4.90;2.43;;;;;;;;;;5043095;28;87062;-50
2022/07/21 09:26:58;;;;;;;4.50;2.57;;;;;;;;;;5042516;28;89200;-50
2022/07/21 09:29:28;;;;;;;4.20;2.50;;;;;;;;;;5043361;28;87745;-49
2022/07/21 09:31:56;;;;;;;5.17;3.30;;;;;;;;;;5042798;28;86938;-50
2022/07/21 09:34:25;;;;;;;4.30;2.80;;;;;;;;;;5042998;28;86971;-50
2022/07/21 09:36:56;;;;;;;3.97;2.90;;;;;;;;;;5042424;28;90013;-50
2022/07/21 09:39:39;;;;;;;5.63;3.57;;;;;;;;;;5042296;28;89839;-50
2022/07/21 09:42:18;;;;;;;6.27;3.47;;;;;;;;;;5042740;28;86799;-50
2022/07/21 09:44:48;;;;;;;4.57;2.87;;;;;;;;;;5042898;28;87152;-50
2022/07/21 09:47:17;;;;;;;3.57;2.63;;;;;;;;;;5042109;28;89162;-49
2022/07/21 09:49:45;;;;;;;4.50;3.43;;;;;;;;;;5041641;28;87757;-50
2022/07/21 09:52:34;;;;;;;4.10;2.97;;;;;;;;;;5042975;28;87108;-50
2022/07/21 09:55:02;;;;;;;4.73;2.77;;;;;;;;;;5043128;28;86126;-49
2022/07/21 09:57:31;;;;;;;2.57;2.33;;;;;;;;;;5042862;28;88240;-49
2022/07/21 10:00:09;;;;;;;3.10;2.80;;;;;;;;;;5042122;28;89201;-50
2022/07/21 10:02:45;;;;;;;4.00;2.70;;;;;;;;;;5042278;27;87960;-50
2022/07/21 10:05:15;;;;;;;4.23;2.93;;;;;;;;;;5042758;28;86952;-49
2022/07/21 10:07:44;;;;;;;4.97;2.77;;;;;;;;;;5042087;28;89542;-50
2022/07/21 10:10:12;;;;;;;3.07;2.47;;;;;;;;;;5042823;28;88034;-50
2022/07/21 10:12:41;;;;;;;3.57;3.20;;;;;;;;;;5042396;28;87021;-49
2022/07/21 10:15:11;;;;;;;3.80;2.83;;;;;;;;;;5042522;28;87041;-51
2022/07/21 10:17:39;;;;;;;2.80;2.40;;;;;;;;;;5041955;28;87278;-50
2022/07/21 10:20:09;;;;;;;4.60;2.63;;;;;;;;;;5042540;28;88935;-50
2022/07/21 10:22:43;;;;;;;2.50;2.10;;;;;;;;;;5042479;28;86801;-50
2022/07/21 10:25:11;;;;;;;5.20;2.77;;;;;;;;;;5042246;28;86910;-50
2022/07/21 10:27:39;;;;;;;2.73;1.83;;;;;;;;;;5041415;28;90305;-50
2022/07/21 10:30:39;;;;;;;2.83;2.30;;;;;;;;;;5033928;28;88324;-50
2022/07/21 10:33:07;;;;;;;2.73;2.40;;;;;;;;;;5042499;28;87143;-50
2022/07/21 10:35:36;;;;;;;3.67;2.23;;;;;;;;;;5041915;28;86915;-50
2022/07/21 10:38:26;;;;;;;2.80;1.80;;;;;;;;;;5041625;28;86992;-50
2022/07/21 10:40:54;;;;;;;2.30;2.10;;;;;;;;;;5041156;28;88904;-50
2022/07/21 10:43:42;;;;;;;2.73;1.67;;;;;;;;;;5041714;28;86978;-50
2022/07/21 10:46:25;;;;;;;2.50;2.20;;;;;;;;;;5042292;28;86288;-50
2022/07/21 10:48:55;;;;;;;3.83;2.27;;;;;;;;;;5025450;28;89057;-50
2022/07/21 10:51:23;;;;;;;4.63;2.20;;;;;;;;;;5033314;28;89033;-49
2022/07/21 10:54:03;;;;;;;3.00;2.40;;;;;;;;;;5041060;28;87873;-49
2022/07/21 10:56:32;;;;;;;2.13;1.67;;;;;;;;;;5041468;28;87101;-50
2022/07/21 10:59:00;;;;;;;1.87;1.43;;;;;;;;;;5041579;28;89082;-51
2022/07/21 11:01:28;;;;;;;1.63;1.53;;;;;;;;;;5041046;28;87704;-50
2022/07/21 11:04:09;;;;;;;6.03;1.90;;;;;;;;;;5041205;28;87064;-49
2022/07/21 11:06:37;;;;;;;3.20;1.73;;;;;;;;;;5041707;28;87021;-50
2022/07/21 11:09:10;;;;;;;2.77;1.97;;;;;;;;;;5041124;28;89115;-50
2022/07/21 11:11:38;;;;;;;3.70;2.17;;;;;;;;;;5042007;28;87812;-50
2022/07/21 11:14:11;;;;;;;2.73;1.80;;;;;;;;;;5041568;28;87035;-49
2022/07/21 11:16:56;;;;;;;3.67;2.10;;;;;;;;;;5044048;28;86982;-50
2022/07/21 11:19:29;;;;;;;2.17;1.97;;;;;;;;;;5044072;28;90117;-49
2022/07/21 11:21:59;;;;;;;2.13;1.97;;;;;;;;;;5044867;28;87636;-50
2022/07/21 11:24:27;;;;;;;2.57;2.37;;;;;;;;;;5044728;28;87029;-50
2022/07/21 11:26:56;;;;;;;3.07;1.97;;;;;;;;;;5044481;28;87034;-50
2022/07/21 11:29:24;;;;;;;2.77;2.10;;;;;;;;;;5044934;28;89125;-49
2022/07/21 11:31:52;;;;;;;3.87;2.63;;;;;;;;;;5043982;28;88977;-49
2022/07/21 11:34:21;;;;;;;4.40;2.43;;;;;;;;;;5044358;28;87025;-49
2022/07/21 11:36:51;;;;;;;4.00;2.40;;;;;;;;;;5044833;28;86214;-50
2022/07/21 11:39:39;;;;;;;2.97;2.40;;;;;;;;;;5044549;28;87591;-50
2022/07/21 11:42:08;;;;;;;2.70;2.40;;;;;;;;;;5044481;28;87996;-49
2022/07/21 11:44:36;;;;;;;3.47;2.47;;;;;;;;;;5044480;28;87995;-49
2022/07/21 11:47:06;;;;;;;3.83;3.03;;;;;;;;;;5044578;28;86936;-49
2022/07/21 11:49:34;;;;;;;4.23;2.33;;;;;;;;;;5044630;28;89108;-50
2022/07/21 11:52:04;;;;;;;3.53;2.57;;;;;;;;;;5044382;28;87770;-50
2022/07/21 11:54:33;;;;;;;4.40;3.17;;;;;;;;;;5044342;28;86924;-50
2022/07/21 11:57:02;;;;;;;5.70;3.03;;;;;;;;;;5042731;28;87200;-50
2022/07/21 11:59:30;;;;;;;4.00;2.70;;;;;;;;;;5044313;28;88158;-49
2022/07/21 12:01:59;;;;;;;4.83;2.53;;;;;;;;;;5043964;28;87796;-50
2022/07/21 12:04:29;;;;;;;4.50;3.10;;;;;;;;;;5043762;28;87575;-49
2022/07/21 12:06:57;;;;;;;4.77;3.43;;;;;;;;;;5043996;28;87827;-49
2022/07/21 12:09:27;;;;;;;4.97;3.40;;;;;;;;;;5043186;28;89093;-49
2022/07/21 12:11:55;;;;;;;5.73;3.23;;;;;;;;;;5044185;28;88919;-51
2022/07/21 12:14:38;;;;;;;4.93;2.83;;;;;;;;;;5044225;28;86861;-50
2022/07/21 12:17:07;;;;;;;3.97;2.87;;;;;;;;;;5044046;28;86926;-50
2022/07/21 12:19:35;;;;;;;4.60;2.50;;;;;;;;;;5044105;28;89075;-50
2022/07/21 12:22:03;;;;;;;4.10;2.90;;;;;;;;;;5043620;28;88814;-49
2022/07/21 12:24:50;;;;;;;2.47;2.17;;;;;;;;;;5044719;28;87015;-49
2022/07/21 12:27:20;;;;;;;2.60;2.20;;;;;;;;;;5044419;27;87623;-49
2022/07/21 12:29:48;;;;;;;4.53;2.77;;;;;;;;;;5043771;28;88412;-49
2022/07/21 12:32:22;;;;;;;4.40;2.87;;;;;;;;;;5043584;28;88125;-49
2022/07/21 12:34:50;;;;;;;3.60;2.47;;;;;;;;;;5041427;28;87967;-50
2022/07/21 12:37:19;;;;;;;2.53;2.10;;;;;;;;;;5044111;28;87097;-49
2022/07/21 12:40:08;;;;;;;2.73;2.00;;;;;;;;;;5043600;28;87723;-49
2022/07/21 12:42:38;;;;;;;2.30;2.00;;;;;;;;;;5043537;28;87797;-51
2022/07/21 12:45:13;;;;;;;4.63;2.67;;;;;;;;;;5043783;28;87047;-50
2022/07/21 12:47:42;;;;;;;4.20;2.33;;;;;;;;;;5043601;28;87180;-49
2022/07/21 12:50:10;;;;;;;4.10;2.40;;;;;;;;;;5043148;28;89225;-49
2022/07/21 12:52:47;;;;;;;3.27;2.47;;;;;;;;;;5044082;28;88810;-50
2022/07/21 12:55:16;;;;;;;2.87;2.17;;;;;;;;;;5043145;28;87118;-49
2022/07/21 12:57:45;;;;;;;4.03;2.23;;;;;;;;;;5043628;28;87023;-50
2022/07/21 13:00:14;;;;;;;2.67;1.97;;;;;;;;;;5025778;28;89235;-49
2022/07/21 13:02:48;;;;;;;2.73;2.03;;;;;;;;;;5042669;28;89966;-50
2022/07/21 13:05:17;;;;;;;2.70;2.40;;;;;;;;;;5043696;28;87047;-50
2022/07/21 13:07:45;;;;;;;3.80;2.40;;;;;;;;;;5043101;28;87569;-50
2022/07/21 13:10:14;;;;;;;2.70;1.97;;;;;;;;;;5043470;28;90589;-50
2022/07/21 13:12:42;;;;;;;3.27;2.50;;;;;;;;;;5043494;28;88931;-49
2022/07/21 13:15:13;;;;;;;2.57;1.77;;;;;;;;;;5042693;28;86738;-49
2022/07/21 13:17:41;;;;;;;3.80;2.47;;;;;;;;;;5043048;28;86324;-49
2022/07/21 13:20:10;;;;;;;3.97;2.80;;;;;;;;;;5042791;28;87110;-50
2022/07/21 13:22:38;;;;;;;5.20;2.80;;;;;;;;;;5043055;28;87933;-49
2022/07/21 13:25:07;;;;;;;3.23;2.37;;;;;;;;;;5042880;28;88091;-49
2022/07/21 13:27:36;;;;;;;4.37;2.90;;;;;;;;;;5043449;28;87000;-50
2022/07/21 13:30:04;;;;;;;4.90;2.97;;;;;;;;;;5043024;28;89247;-50
2022/07/21 13:32:36;;;;;;;4.00;2.90;;;;;;;;;;5042324;28;87628;-50
2022/07/21 13:35:04;;;;;;;5.27;2.83;;;;;;;;;;5042713;28;86915;-49
2022/07/21 13:37:53;;;;;;;4.60;3.33;;;;;;;;;;5041992;27;87128;-50
2022/07/21 13:40:21;;;;;;;3.40;2.43;;;;;;;;;;5042662;28;88267;-50
2022/07/21 13:43:09;;;;;;;5.50;2.83;;;;;;;;;;5043153;28;87392;-49
2022/07/21 13:45:58;;;;;;;3.27;2.73;;;;;;;;;;5042907;28;86868;-50
2022/07/21 13:48:27;;;;;;;4.77;3.03;;;;;;;;;;5042748;28;87067;-49
2022/07/21 13:50:56;;;;;;;4.00;2.90;;;;;;;;;;5041536;28;89107;-49
2022/07/21 13:53:24;;;;;;;2.53;2.33;;;;;;;;;;5041981;28;88912;-49
2022/07/21 13:55:53;;;;;;;3.97;2.67;;;;;;;;;;5042379;28;87237;-50
2022/07/21 13:58:22;;;;;;;4.10;2.73;;;;;;;;;;5042426;28;86966;-50
2022/07/21 14:00:51;;;;;;;3.60;2.80;;;;;;;;;;5041388;28;89388;-50
2022/07/21 14:03:19;;;;;;;5.23;2.77;;;;;;;;;;5042226;28;87898;-49
2022/07/21 14:05:49;;;;;;;3.00;2.50;;;;;;;;;;5042431;28;86857;-50
2022/07/21 14:08:17;;;;;;;5.87;3.00;;;;;;;;;;5042729;28;86055;-49
2022/07/21 14:10:46;;;;;;;3.37;2.50;;;;;;;;;;5042269;28;88038;-50
2022/07/21 14:13:14;;;;;;;3.30;2.50;;;;;;;;;;5042358;28;87875;-50
2022/07/21 14:15:42;;;;;;;3.33;2.33;;;;;;;;;;5041485;28;87989;-50
2022/07/21 14:18:11;;;;;;;3.43;2.67;;;;;;;;;;5041780;28;87145;-50
2022/07/21 14:20:39;;;;;;;4.20;2.87;;;;;;;;;;5041329;28;88211;-49
2022/07/21 14:23:09;;;;;;;3.13;2.33;;;;;;;;;;5041857;28;86710;-50
2022/07/21 14:25:39;;;;;;;4.60;2.33;;;;;;;;;;5041606;28;87019;-50
2022/07/21 14:28:08;;;;;;;2.33;2.07;;;;;;;;;;5041735;28;86925;-49
2022/07/21 14:30:36;;;;;;;3.90;2.30;;;;;;;;;;5041604;28;88264;-50
2022/07/21 14:33:04;;;;;;;3.00;1.83;;;;;;;;;;5041972;28;88954;-50
2022/07/21 14:35:32;;;;;;;3.50;2.23;;;;;;;;;;5042442;28;87019;-50
2022/07/21 14:38:01;;;;;;;4.00;2.10;;;;;;;;;;5041979;28;87011;-49
2022/07/21 14:40:30;;;;;;;3.77;2.20;;;;;;;;;;5041163;28;90217;-50
2022/07/21 14:42:59;;;;;;;3.10;1.97;;;;;;;;;;5041851;28;88683;-50
2022/07/21 14:45:27;;;;;;;3.63;2.00;;;;;;;;;;5042222;28;86910;-49
2022/07/21 14:47:56;;;;;;;2.30;1.70;;;;;;;;;;5042057;28;87090;-49
2022/07/21 14:50:25;;;;;;;2.40;1.70;;;;;;;;;;5040488;28;87016;-50
2022/07/21 14:52:55;;;;;;;2.67;2.07;;;;;;;;;;5041709;28;87635;-50
2022/07/21 14:55:24;;;;;;;3.30;2.30;;;;;;;;;;5041992;28;86997;-50
2022/07/21 14:57:54;;;;;;;3.93;2.00;;;;;;;;;;5042306;28;86135;-50
2022/07/21 15:00:24;;;;;;;6.10;2.30;;;;;;;;;;5041090;28;88251;-50
2022/07/21 15:02:52;;;;;;;3.37;2.37;;;;;;;;;;5041275;28;88953;-49